sensor_id;sensor_type;location;lat;lon;timestamp;temperature;humidity
6164;DHT22;3114;48.362;10.994;2023-04-03T00:00:22;6.90;99.90
6164;DHT22;3114;48.362;10.994;2023-04-03T00:02:48;7.00;99.90
6164;DHT22;3114;48.362;10.994;2023-04-03T00:05:17;6.80;99.90
6164;DHT22;3114;48.362;10.994;2023-04-03T00:07:43;6.60;99.90
6164;DHT22;3114;48.362;10.994;2023-04-03T00:10:11;6.70;99.90
6164;DHT22;3114;48.362;10.994;2023-04-03T00:12:39;6.70;99.90
6164;DHT22;3114;48.362;10.994;2023-04-03T00:15:06;6.60;99.90
6164;DHT22;3114;48.362;10.994;2023-04-03T00:17:35;6.70;99.90
6164;DHT22;3114;48.362;10.994;2023-04-03T00:20:02;6.80;99.90
6164;DHT22;3114;48.362;10.994;2023-04-03T00:22:30;6.60;99.90
6164;DHT22;3114;48.362;10.994;2023-04-03T00:24:57;6.60;99.90
6164;DHT22;3114;48.362;10.994;2023-04-03T00:27:24;6.70;99.90
6164;DHT22;3114;48.362;10.994;2023-04-03T00:29:51;6.70;99.90
6164;DHT22;3114;48.362;10.994;2023-04-03T00:32:17;6.80;99.90
6164;DHT22;3114;48.362;10.994;2023-04-03T00:34:44;6.70;99.90
6164;DHT22;3114;48.362;10.994;2023-04-03T00:37:11;6.70;99.90
6164;DHT22;3114;48.362;10.994;2023-04-03T00:39:39;6.70;99.90
6164;DHT22;3114;48.362;10.994;2023-04-03T00:42:06;6.70;99.90
6164;DHT22;3114;48.362;10.994;2023-04-03T00:47:38;6.80;99.90
6164;DHT22;3114;48.362;10.994;2023-04-03T00:50:06;6.00;99.90
6164;DHT22;3114;48.362;10.994;2023-04-03T00:52:33;6.60;99.90
6164;DHT22;3114;48.362;10.994;2023-04-03T00:55:05;6.50;99.90
6164;DHT22;3114;48.362;10.994;2023-04-03T00:57:34;6.60;99.90
6164;DHT22;3114;48.362;10.994;2023-04-03T01:00:04;6.60;99.90
6164;DHT22;3114;48.362;10.994;2023-04-03T01:02:33;6.60;99.90
6164;DHT22;3114;48.362;10.994;2023-04-03T01:08:10;6.60;99.90
6164;DHT22;3114;48.362;10.994;2023-04-03T01:10:38;6.60;99.90
6164;DHT22;3114;48.362;10.994;2023-04-03T01:13:19;6.60;99.90
6164;DHT22;3114;48.362;10.994;2023-04-03T01:15:46;6.50;99.90
6164;DHT22;3114;48.362;10.994;2023-04-03T01:18:12;6.50;99.90
6164;DHT22;3114;48.362;10.994;2023-04-03T01:23:44;6.50;99.90
6164;DHT22;3114;48.362;10.994;2023-04-03T01:26:17;6.50;99.90
6164;DHT22;3114;48.362;10.994;2023-04-03T01:28:44;6.40;99.90
6164;DHT22;3114;48.362;10.994;2023-04-03T01:31:16;6.50;99.90
6164;DHT22;3114;48.362;10.994;2023-04-03T01:33:47;6.50;99.90
6164;DHT22;3114;48.362;10.994;2023-04-03T01:36:15;6.60;99.90
6164;DHT22;3114;48.362;10.994;2023-04-03T01:38:42;6.60;99.90
6164;DHT22;3114;48.362;10.994;2023-04-03T01:41:09;6.50;99.90
6164;DHT22;3114;48.362;10.994;2023-04-03T01:43:36;6.40;99.90
6164;DHT22;3114;48.362;10.994;2023-04-03T01:46:03;6.40;99.90
6164;DHT22;3114;48.362;10.994;2023-04-03T01:48:30;6.40;99.90
6164;DHT22;3114;48.362;10.994;2023-04-03T01:50:58;6.40;99.90
6164;DHT22;3114;48.362;10.994;2023-04-03T01:53:25;6.40;99.90
6164;DHT22;3114;48.362;10.994;2023-04-03T01:55:52;6.40;99.90
6164;DHT22;3114;48.362;10.994;2023-04-03T01:58:19;6.30;99.90
6164;DHT22;3114;48.362;10.994;2023-04-03T02:00:45;6.30;99.90
6164;DHT22;3114;48.362;10.994;2023-04-03T02:03:12;6.30;99.90
6164;DHT22;3114;48.362;10.994;2023-04-03T02:05:39;6.50;99.90
6164;DHT22;3114;48.362;10.994;2023-04-03T02:08:07;6.30;99.90
6164;DHT22;3114;48.362;10.994;2023-04-03T02:10:34;6.30;99.90
6164;DHT22;3114;48.362;10.994;2023-04-03T02:13:01;6.30;99.90
6164;DHT22;3114;48.362;10.994;2023-04-03T02:15:28;6.30;99.90
6164;DHT22;3114;48.362;10.994;2023-04-03T02:17:55;6.40;99.90
6164;DHT22;3114;48.362;10.994;2023-04-03T02:20:21;6.40;99.90
6164;DHT22;3114;48.362;10.994;2023-04-03T02:22:48;6.40;99.90
6164;DHT22;3114;48.362;10.994;2023-04-03T02:25:17;6.40;99.90
6164;DHT22;3114;48.362;10.994;2023-04-03T02:27:44;6.40;99.90
6164;DHT22;3114;48.362;10.994;2023-04-03T02:30:11;6.40;99.90
6164;DHT22;3114;48.362;10.994;2023-04-03T02:32:40;6.30;99.90
6164;DHT22;3114;48.362;10.994;2023-04-03T02:35:08;6.20;99.90
6164;DHT22;3114;48.362;10.994;2023-04-03T02:37:35;6.30;99.90
6164;DHT22;3114;48.362;10.994;2023-04-03T02:40:02;6.30;99.90
6164;DHT22;3114;48.362;10.994;2023-04-03T02:42:31;6.40;99.90
6164;DHT22;3114;48.362;10.994;2023-04-03T02:44:58;6.30;99.90
6164;DHT22;3114;48.362;10.994;2023-04-03T02:47:26;6.30;99.90
6164;DHT22;3114;48.362;10.994;2023-04-03T02:49:53;6.30;99.90
6164;DHT22;3114;48.362;10.994;2023-04-03T02:52:20;6.30;99.90
6164;DHT22;3114;48.362;10.994;2023-04-03T02:54:47;6.20;99.90
6164;DHT22;3114;48.362;10.994;2023-04-03T02:57:14;6.30;99.90
6164;DHT22;3114;48.362;10.994;2023-04-03T02:59:42;6.10;99.90
6164;DHT22;3114;48.362;10.994;2023-04-03T03:02:09;5.90;99.90
6164;DHT22;3114;48.362;10.994;2023-04-03T03:04:37;5.90;99.90
6164;DHT22;3114;48.362;10.994;2023-04-03T03:07:04;6.00;99.90
6164;DHT22;3114;48.362;10.994;2023-04-03T03:09:31;6.00;99.90
6164;DHT22;3114;48.362;10.994;2023-04-03T03:11:58;6.00;99.90
6164;DHT22;3114;48.362;10.994;2023-04-03T03:14:25;6.10;99.90
6164;DHT22;3114;48.362;10.994;2023-04-03T03:16:53;6.00;99.90
6164;DHT22;3114;48.362;10.994;2023-04-03T03:19:20;6.00;99.90
6164;DHT22;3114;48.362;10.994;2023-04-03T03:21:47;5.90;99.90
6164;DHT22;3114;48.362;10.994;2023-04-03T03:24:14;5.90;99.90
6164;DHT22;3114;48.362;10.994;2023-04-03T03:26:43;5.80;99.90
6164;DHT22;3114;48.362;10.994;2023-04-03T03:29:09;5.80;99.90
6164;DHT22;3114;48.362;10.994;2023-04-03T03:31:36;5.80;99.90
6164;DHT22;3114;48.362;10.994;2023-04-03T03:34:05;5.70;99.90
6164;DHT22;3114;48.362;10.994;2023-04-03T03:36:31;5.70;99.90
6164;DHT22;3114;48.362;10.994;2023-04-03T03:38:58;5.70;99.90
6164;DHT22;3114;48.362;10.994;2023-04-03T03:41:25;5.80;99.90
6164;DHT22;3114;48.362;10.994;2023-04-03T03:43:52;5.80;99.90
6164;DHT22;3114;48.362;10.994;2023-04-03T03:46:19;5.90;99.90
6164;DHT22;3114;48.362;10.994;2023-04-03T03:48:46;6.00;99.90
6164;DHT22;3114;48.362;10.994;2023-04-03T03:51:14;6.10;99.90
6164;DHT22;3114;48.362;10.994;2023-04-03T03:53:41;6.00;99.90
6164;DHT22;3114;48.362;10.994;2023-04-03T03:56:07;6.00;99.90
6164;DHT22;3114;48.362;10.994;2023-04-03T03:58:35;6.00;99.90
6164;DHT22;3114;48.362;10.994;2023-04-03T04:01:02;6.00;99.90
6164;DHT22;3114;48.362;10.994;2023-04-03T04:03:31;6.10;99.90
6164;DHT22;3114;48.362;10.994;2023-04-03T04:05:58;6.10;99.90
6164;DHT22;3114;48.362;10.994;2023-04-03T04:08:27;6.10;99.90
6164;DHT22;3114;48.362;10.994;2023-04-03T04:10:53;6.00;99.90
6164;DHT22;3114;48.362;10.994;2023-04-03T04:13:20;6.10;99.90
6164;DHT22;3114;48.362;10.994;2023-04-03T04:15:47;6.10;99.90
6164;DHT22;3114;48.362;10.994;2023-04-03T04:18:14;6.10;99.90
6164;DHT22;3114;48.362;10.994;2023-04-03T04:20:41;6.00;99.90
6164;DHT22;3114;48.362;10.994;2023-04-03T04:23:08;5.80;99.90
6164;DHT22;3114;48.362;10.994;2023-04-03T04:25:36;5.90;99.90
6164;DHT22;3114;48.362;10.994;2023-04-03T04:28:03;6.00;99.90
6164;DHT22;3114;48.362;10.994;2023-04-03T04:30:30;6.00;99.90
6164;DHT22;3114;48.362;10.994;2023-04-03T04:32:57;5.90;99.90
6164;DHT22;3114;48.362;10.994;2023-04-03T04:35:24;5.90;99.90
6164;DHT22;3114;48.362;10.994;2023-04-03T04:37:51;5.90;99.90
6164;DHT22;3114;48.362;10.994;2023-04-03T04:40:18;6.00;99.90
6164;DHT22;3114;48.362;10.994;2023-04-03T04:42:46;5.80;99.90
6164;DHT22;3114;48.362;10.994;2023-04-03T04:45:13;5.80;99.90
6164;DHT22;3114;48.362;10.994;2023-04-03T04:47:40;5.80;99.90
6164;DHT22;3114;48.362;10.994;2023-04-03T04:50:08;5.70;99.90
6164;DHT22;3114;48.362;10.994;2023-04-03T04:52:35;5.80;99.90
6164;DHT22;3114;48.362;10.994;2023-04-03T04:55:02;5.90;99.90
6164;DHT22;3114;48.362;10.994;2023-04-03T04:57:29;5.90;99.90
6164;DHT22;3114;48.362;10.994;2023-04-03T04:59:57;5.80;99.90
6164;DHT22;3114;48.362;10.994;2023-04-03T05:02:24;5.90;99.90
6164;DHT22;3114;48.362;10.994;2023-04-03T05:04:51;5.80;99.90
6164;DHT22;3114;48.362;10.994;2023-04-03T05:07:18;5.70;99.90
6164;DHT22;3114;48.362;10.994;2023-04-03T05:09:44;5.80;99.90
6164;DHT22;3114;48.362;10.994;2023-04-03T05:12:11;5.80;99.90
6164;DHT22;3114;48.362;10.994;2023-04-03T05:14:38;5.80;99.90
6164;DHT22;3114;48.362;10.994;2023-04-03T05:17:06;5.90;99.90
6164;DHT22;3114;48.362;10.994;2023-04-03T05:19:33;5.90;99.90
6164;DHT22;3114;48.362;10.994;2023-04-03T05:22:00;5.80;99.90
6164;DHT22;3114;48.362;10.994;2023-04-03T05:24:30;5.80;99.90
6164;DHT22;3114;48.362;10.994;2023-04-03T05:26:57;5.90;99.90
6164;DHT22;3114;48.362;10.994;2023-04-03T05:29:25;6.00;99.90
6164;DHT22;3114;48.362;10.994;2023-04-03T05:31:52;6.00;99.90
6164;DHT22;3114;48.362;10.994;2023-04-03T05:34:20;6.00;99.90
6164;DHT22;3114;48.362;10.994;2023-04-03T05:36:47;6.10;99.90
6164;DHT22;3114;48.362;10.994;2023-04-03T05:39:14;6.10;99.90
6164;DHT22;3114;48.362;10.994;2023-04-03T05:41:41;5.90;99.90
6164;DHT22;3114;48.362;10.994;2023-04-03T05:44:08;5.80;99.90
6164;DHT22;3114;48.362;10.994;2023-04-03T05:46:35;5.70;99.90
6164;DHT22;3114;48.362;10.994;2023-04-03T05:49:02;5.70;99.90
6164;DHT22;3114;48.362;10.994;2023-04-03T05:51:33;5.60;99.90
6164;DHT22;3114;48.362;10.994;2023-04-03T05:54:06;5.60;99.90
6164;DHT22;3114;48.362;10.994;2023-04-03T05:56:35;5.80;99.90
6164;DHT22;3114;48.362;10.994;2023-04-03T05:59:02;5.90;99.90
6164;DHT22;3114;48.362;10.994;2023-04-03T06:01:29;5.90;99.90
6164;DHT22;3114;48.362;10.994;2023-04-03T06:03:56;6.00;99.90
6164;DHT22;3114;48.362;10.994;2023-04-03T06:06:24;5.90;99.90
6164;DHT22;3114;48.362;10.994;2023-04-03T06:08:52;5.80;99.90
6164;DHT22;3114;48.362;10.994;2023-04-03T06:11:19;5.90;99.90
6164;DHT22;3114;48.362;10.994;2023-04-03T06:13:47;5.90;99.90
6164;DHT22;3114;48.362;10.994;2023-04-03T06:16:15;5.90;99.90
6164;DHT22;3114;48.362;10.994;2023-04-03T06:18:43;5.90;99.90
6164;DHT22;3114;48.362;10.994;2023-04-03T06:21:10;6.00;99.90
6164;DHT22;3114;48.362;10.994;2023-04-03T06:23:37;5.90;99.90
6164;DHT22;3114;48.362;10.994;2023-04-03T06:26:05;5.90;99.90
6164;DHT22;3114;48.362;10.994;2023-04-03T06:28:32;6.00;99.90
6164;DHT22;3114;48.362;10.994;2023-04-03T06:30:59;5.90;99.90
6164;DHT22;3114;48.362;10.994;2023-04-03T06:33:26;6.00;99.90
6164;DHT22;3114;48.362;10.994;2023-04-03T06:35:57;6.00;99.90
6164;DHT22;3114;48.362;10.994;2023-04-03T06:38:24;6.00;99.90
6164;DHT22;3114;48.362;10.994;2023-04-03T06:40:55;6.00;99.90
6164;DHT22;3114;48.362;10.994;2023-04-03T06:43:23;5.90;99.90
6164;DHT22;3114;48.362;10.994;2023-04-03T06:45:50;5.90;99.90
6164;DHT22;3114;48.362;10.994;2023-04-03T06:48:17;6.00;99.90
6164;DHT22;3114;48.362;10.994;2023-04-03T06:50:44;6.00;99.90
6164;DHT22;3114;48.362;10.994;2023-04-03T06:53:11;6.00;99.90
6164;DHT22;3114;48.362;10.994;2023-04-03T06:55:38;6.00;99.90
6164;DHT22;3114;48.362;10.994;2023-04-03T06:58:07;6.10;99.90
6164;DHT22;3114;48.362;10.994;2023-04-03T07:00:35;6.10;99.90
6164;DHT22;3114;48.362;10.994;2023-04-03T07:03:02;6.20;99.90
6164;DHT22;3114;48.362;10.994;2023-04-03T07:05:32;6.20;99.90
6164;DHT22;3114;48.362;10.994;2023-04-03T07:07:59;6.40;99.90
6164;DHT22;3114;48.362;10.994;2023-04-03T07:10:26;6.40;99.90
6164;DHT22;3114;48.362;10.994;2023-04-03T07:12:53;6.60;99.90
6164;DHT22;3114;48.362;10.994;2023-04-03T07:15:20;6.60;99.90
6164;DHT22;3114;48.362;10.994;2023-04-03T07:17:48;6.80;99.90
6164;DHT22;3114;48.362;10.994;2023-04-03T07:20:30;6.70;99.90
6164;DHT22;3114;48.362;10.994;2023-04-03T07:22:57;6.70;99.90
6164;DHT22;3114;48.362;10.994;2023-04-03T07:25:25;6.70;99.90
6164;DHT22;3114;48.362;10.994;2023-04-03T07:27:55;6.70;99.90
6164;DHT22;3114;48.362;10.994;2023-04-03T07:30:22;6.80;99.90
6164;DHT22;3114;48.362;10.994;2023-04-03T07:32:50;6.80;99.90
6164;DHT22;3114;48.362;10.994;2023-04-03T07:35:17;6.70;99.90
6164;DHT22;3114;48.362;10.994;2023-04-03T07:37:45;6.70;99.90
6164;DHT22;3114;48.362;10.994;2023-04-03T07:40:12;6.60;99.90
6164;DHT22;3114;48.362;10.994;2023-04-03T07:42:39;6.80;99.90
6164;DHT22;3114;48.362;10.994;2023-04-03T07:45:06;6.80;99.90
6164;DHT22;3114;48.362;10.994;2023-04-03T07:47:33;6.70;99.90
6164;DHT22;3114;48.362;10.994;2023-04-03T07:50:02;6.70;99.90
6164;DHT22;3114;48.362;10.994;2023-04-03T07:52:29;6.80;99.90
6164;DHT22;3114;48.362;10.994;2023-04-03T07:54:56;6.80;99.90
6164;DHT22;3114;48.362;10.994;2023-04-03T07:57:22;6.80;99.90
6164;DHT22;3114;48.362;10.994;2023-04-03T07:59:49;6.70;99.90
6164;DHT22;3114;48.362;10.994;2023-04-03T08:02:16;6.80;99.90
6164;DHT22;3114;48.362;10.994;2023-04-03T08:04:43;6.90;99.90
6164;DHT22;3114;48.362;10.994;2023-04-03T08:07:11;7.10;99.90
6164;DHT22;3114;48.362;10.994;2023-04-03T08:09:38;7.10;99.90
6164;DHT22;3114;48.362;10.994;2023-04-03T08:12:05;7.10;99.90
6164;DHT22;3114;48.362;10.994;2023-04-03T08:14:32;7.00;99.90
6164;DHT22;3114;48.362;10.994;2023-04-03T08:17:00;6.90;99.90
6164;DHT22;3114;48.362;10.994;2023-04-03T08:19:28;6.90;99.90
6164;DHT22;3114;48.362;10.994;2023-04-03T08:21:55;7.00;99.90
6164;DHT22;3114;48.362;10.994;2023-04-03T08:24:23;7.00;99.90
6164;DHT22;3114;48.362;10.994;2023-04-03T08:26:50;7.00;99.90
6164;DHT22;3114;48.362;10.994;2023-04-03T08:29:17;7.20;99.90
6164;DHT22;3114;48.362;10.994;2023-04-03T08:31:44;7.20;99.90
6164;DHT22;3114;48.362;10.994;2023-04-03T08:34:11;7.30;99.90
6164;DHT22;3114;48.362;10.994;2023-04-03T08:36:39;7.30;99.90
6164;DHT22;3114;48.362;10.994;2023-04-03T08:39:05;7.30;99.90
6164;DHT22;3114;48.362;10.994;2023-04-03T08:41:36;7.40;99.90
6164;DHT22;3114;48.362;10.994;2023-04-03T08:44:13;7.40;99.90
6164;DHT22;3114;48.362;10.994;2023-04-03T08:46:52;7.40;99.90
6164;DHT22;3114;48.362;10.994;2023-04-03T08:49:26;7.40;99.90
6164;DHT22;3114;48.362;10.994;2023-04-03T08:51:55;7.30;99.90
6164;DHT22;3114;48.362;10.994;2023-04-03T08:54:28;7.50;99.90
6164;DHT22;3114;48.362;10.994;2023-04-03T08:56:59;7.50;99.90
6164;DHT22;3114;48.362;10.994;2023-04-03T08:59:31;7.50;99.90
6164;DHT22;3114;48.362;10.994;2023-04-03T09:02:02;7.60;99.90
6164;DHT22;3114;48.362;10.994;2023-04-03T09:04:32;7.50;99.90
6164;DHT22;3114;48.362;10.994;2023-04-03T09:07:07;7.50;99.90
6164;DHT22;3114;48.362;10.994;2023-04-03T09:09:37;7.50;99.90
6164;DHT22;3114;48.362;10.994;2023-04-03T09:12:15;7.50;99.90
6164;DHT22;3114;48.362;10.994;2023-04-03T09:14:49;7.80;99.90
6164;DHT22;3114;48.362;10.994;2023-04-03T09:17:26;7.90;99.90
6164;DHT22;3114;48.362;10.994;2023-04-03T09:20:03;7.90;99.90
6164;DHT22;3114;48.362;10.994;2023-04-03T09:22:33;7.90;99.90
6164;DHT22;3114;48.362;10.994;2023-04-03T09:25:03;8.00;99.90
6164;DHT22;3114;48.362;10.994;2023-04-03T09:27:34;8.00;99.90
6164;DHT22;3114;48.362;10.994;2023-04-03T09:30:02;7.90;99.90
6164;DHT22;3114;48.362;10.994;2023-04-03T09:32:31;7.90;99.90
6164;DHT22;3114;48.362;10.994;2023-04-03T09:35:01;7.70;99.90
6164;DHT22;3114;48.362;10.994;2023-04-03T09:37:40;7.50;99.90
6164;DHT22;3114;48.362;10.994;2023-04-03T09:40:29;7.30;99.90
6164;DHT22;3114;48.362;10.994;2023-04-03T09:42:59;7.40;99.90
6164;DHT22;3114;48.362;10.994;2023-04-03T09:45:29;7.40;99.90
6164;DHT22;3114;48.362;10.994;2023-04-03T09:48:15;7.50;99.90
6164;DHT22;3114;48.362;10.994;2023-04-03T09:50:54;7.60;99.90
6164;DHT22;3114;48.362;10.994;2023-04-03T09:53:42;7.50;99.90
6164;DHT22;3114;48.362;10.994;2023-04-03T09:56:21;7.50;99.90
6164;DHT22;3114;48.362;10.994;2023-04-03T09:58:51;7.50;99.90
6164;DHT22;3114;48.362;10.994;2023-04-03T10:01:25;7.40;99.90
6164;DHT22;3114;48.362;10.994;2023-04-03T10:04:06;7.50;99.90
6164;DHT22;3114;48.362;10.994;2023-04-03T10:06:35;7.50;99.90
6164;DHT22;3114;48.362;10.994;2023-04-03T10:09:04;7.50;99.90
6164;DHT22;3114;48.362;10.994;2023-04-03T10:11:32;7.40;99.90
6164;DHT22;3114;48.362;10.994;2023-04-03T10:14:02;7.30;99.90
6164;DHT22;3114;48.362;10.994;2023-04-03T10:16:36;7.30;99.90
6164;DHT22;3114;48.362;10.994;2023-04-03T10:19:29;7.20;99.90
6164;DHT22;3114;48.362;10.994;2023-04-03T10:22:01;7.30;99.90
6164;DHT22;3114;48.362;10.994;2023-04-03T10:24:36;7.40;99.90
6164;DHT22;3114;48.362;10.994;2023-04-03T10:27:09;7.50;99.90
6164;DHT22;3114;48.362;10.994;2023-04-03T10:29:42;7.60;99.90
6164;DHT22;3114;48.362;10.994;2023-04-03T10:32:38;7.50;99.90
6164;DHT22;3114;48.362;10.994;2023-04-03T10:35:16;7.60;99.90
6164;DHT22;3114;48.362;10.994;2023-04-03T10:37:56;7.60;99.90
6164;DHT22;3114;48.362;10.994;2023-04-03T10:40:30;7.70;99.90
6164;DHT22;3114;48.362;10.994;2023-04-03T10:43:01;7.70;99.90
6164;DHT22;3114;48.362;10.994;2023-04-03T10:45:45;7.70;99.90
6164;DHT22;3114;48.362;10.994;2023-04-03T10:48:18;7.90;99.90
6164;DHT22;3114;48.362;10.994;2023-04-03T10:50:59;7.80;99.90
6164;DHT22;3114;48.362;10.994;2023-04-03T10:53:33;7.50;99.90
6164;DHT22;3114;48.362;10.994;2023-04-03T10:56:05;7.40;99.90
6164;DHT22;3114;48.362;10.994;2023-04-03T10:58:38;7.30;99.90
6164;DHT22;3114;48.362;10.994;2023-04-03T11:01:09;7.50;99.90
6164;DHT22;3114;48.362;10.994;2023-04-03T11:03:41;7.40;99.90
6164;DHT22;3114;48.362;10.994;2023-04-03T11:06:12;7.30;99.90
6164;DHT22;3114;48.362;10.994;2023-04-03T11:08:44;7.40;99.90
6164;DHT22;3114;48.362;10.994;2023-04-03T11:11:15;7.50;99.90
6164;DHT22;3114;48.362;10.994;2023-04-03T11:13:46;7.50;99.90
6164;DHT22;3114;48.362;10.994;2023-04-03T11:16:18;7.30;99.90
6164;DHT22;3114;48.362;10.994;2023-04-03T11:18:49;7.40;99.90
6164;DHT22;3114;48.362;10.994;2023-04-03T11:21:20;7.40;99.90
6164;DHT22;3114;48.362;10.994;2023-04-03T11:23:48;7.50;99.90
6164;DHT22;3114;48.362;10.994;2023-04-03T11:26:18;7.60;99.90
6164;DHT22;3114;48.362;10.994;2023-04-03T11:28:46;7.70;99.90
6164;DHT22;3114;48.362;10.994;2023-04-03T11:31:33;7.70;99.90
6164;DHT22;3114;48.362;10.994;2023-04-03T11:34:15;7.90;99.90
6164;DHT22;3114;48.362;10.994;2023-04-03T11:36:47;7.90;99.90
6164;DHT22;3114;48.362;10.994;2023-04-03T11:39:21;7.90;99.90
6164;DHT22;3114;48.362;10.994;2023-04-03T11:41:49;7.80;99.90
6164;DHT22;3114;48.362;10.994;2023-04-03T11:44:32;7.90;99.90
6164;DHT22;3114;48.362;10.994;2023-04-03T11:47:02;7.90;99.90
6164;DHT22;3114;48.362;10.994;2023-04-03T11:49:55;7.90;99.90
6164;DHT22;3114;48.362;10.994;2023-04-03T11:52:58;7.70;99.90
6164;DHT22;3114;48.362;10.994;2023-04-03T11:55:46;7.60;99.90
6164;DHT22;3114;48.362;10.994;2023-04-03T11:58:19;7.60;99.90
6164;DHT22;3114;48.362;10.994;2023-04-03T12:00:58;7.60;99.90
6164;DHT22;3114;48.362;10.994;2023-04-03T12:09:27;7.70;99.90
6164;DHT22;3114;48.362;10.994;2023-04-03T12:11:55;7.90;99.90
6164;DHT22;3114;48.362;10.994;2023-04-03T12:14:24;8.00;99.90
6164;DHT22;3114;48.362;10.994;2023-04-03T12:16:53;8.10;99.90
6164;DHT22;3114;48.362;10.994;2023-04-03T12:19:37;8.30;99.90
6164;DHT22;3114;48.362;10.994;2023-04-03T12:22:14;9.70;99.90
6164;DHT22;3114;48.362;10.994;2023-04-03T12:24:42;11.70;99.90
6164;DHT22;3114;48.362;10.994;2023-04-03T12:27:26;11.90;99.90
6164;DHT22;3114;48.362;10.994;2023-04-03T12:29:59;11.80;99.90
6164;DHT22;3114;48.362;10.994;2023-04-03T12:32:41;11.40;99.90
6164;DHT22;3114;48.362;10.994;2023-04-03T12:35:18;11.20;99.90
6164;DHT22;3114;48.362;10.994;2023-04-03T12:41:18;12.50;99.90
6164;DHT22;3114;48.362;10.994;2023-04-03T12:44:01;12.10;99.90
6164;DHT22;3114;48.362;10.994;2023-04-03T12:46:36;12.90;99.90
6164;DHT22;3114;48.362;10.994;2023-04-03T12:49:14;14.30;99.90
6164;DHT22;3114;48.362;10.994;2023-04-03T12:51:47;16.50;99.90
6164;DHT22;3114;48.362;10.994;2023-04-03T12:54:16;15.70;99.90
6164;DHT22;3114;48.362;10.994;2023-04-03T12:56:45;16.10;99.90
6164;DHT22;3114;48.362;10.994;2023-04-03T12:59:16;16.50;99.90
6164;DHT22;3114;48.362;10.994;2023-04-03T13:01:44;15.70;99.90
6164;DHT22;3114;48.362;10.994;2023-04-03T13:04:12;14.70;99.90
6164;DHT22;3114;48.362;10.994;2023-04-03T13:06:40;13.50;99.90
6164;DHT22;3114;48.362;10.994;2023-04-03T13:09:19;12.70;99.90
6164;DHT22;3114;48.362;10.994;2023-04-03T13:11:49;11.50;99.90
6164;DHT22;3114;48.362;10.994;2023-04-03T13:14:19;11.30;99.90
6164;DHT22;3114;48.362;10.994;2023-04-03T13:16:53;11.20;99.90
6164;DHT22;3114;48.362;10.994;2023-04-03T13:19:23;11.00;99.90
6164;DHT22;3114;48.362;10.994;2023-04-03T13:21:55;10.50;99.90
6164;DHT22;3114;48.362;10.994;2023-04-03T13:24:25;10.00;99.90
6164;DHT22;3114;48.362;10.994;2023-04-03T13:26:52;9.50;99.90
6164;DHT22;3114;48.362;10.994;2023-04-03T13:29:23;9.20;99.90
6164;DHT22;3114;48.362;10.994;2023-04-03T13:31:53;9.00;99.90
6164;DHT22;3114;48.362;10.994;2023-04-03T13:34:23;8.60;99.90
6164;DHT22;3114;48.362;10.994;2023-04-03T13:36:56;8.40;99.90
6164;DHT22;3114;48.362;10.994;2023-04-03T13:39:27;8.40;99.90
6164;DHT22;3114;48.362;10.994;2023-04-03T13:41:56;8.40;99.90
6164;DHT22;3114;48.362;10.994;2023-04-03T13:44:32;8.50;99.90
6164;DHT22;3114;48.362;10.994;2023-04-03T13:47:01;8.50;99.90
6164;DHT22;3114;48.362;10.994;2023-04-03T13:49:42;8.70;99.90
6164;DHT22;3114;48.362;10.994;2023-04-03T13:52:22;8.80;99.90
6164;DHT22;3114;48.362;10.994;2023-04-03T13:54:55;9.00;99.90
6164;DHT22;3114;48.362;10.994;2023-04-03T13:57:23;9.20;99.90
6164;DHT22;3114;48.362;10.994;2023-04-03T13:59:50;9.40;99.90
6164;DHT22;3114;48.362;10.994;2023-04-03T14:02:20;10.30;99.90
6164;DHT22;3114;48.362;10.994;2023-04-03T14:04:51;10.50;99.90
6164;DHT22;3114;48.362;10.994;2023-04-03T14:07:22;10.70;99.90
6164;DHT22;3114;48.362;10.994;2023-04-03T14:09:49;10.70;99.90
6164;DHT22;3114;48.362;10.994;2023-04-03T14:12:24;10.90;99.90
6164;DHT22;3114;48.362;10.994;2023-04-03T14:14:51;11.20;99.90
6164;DHT22;3114;48.362;10.994;2023-04-03T14:17:20;11.60;99.90
6164;DHT22;3114;48.362;10.994;2023-04-03T14:19:49;12.00;99.90
6164;DHT22;3114;48.362;10.994;2023-04-03T14:22:19;12.20;99.90
6164;DHT22;3114;48.362;10.994;2023-04-03T14:24:47;12.00;99.90
6164;DHT22;3114;48.362;10.994;2023-04-03T14:27:19;11.70;99.90
6164;DHT22;3114;48.362;10.994;2023-04-03T14:29:47;11.60;99.90
6164;DHT22;3114;48.362;10.994;2023-04-03T14:32:16;11.40;99.90
6164;DHT22;3114;48.362;10.994;2023-04-03T14:34:44;11.20;99.90
6164;DHT22;3114;48.362;10.994;2023-04-03T14:37:12;11.60;99.90
6164;DHT22;3114;48.362;10.994;2023-04-03T14:39:40;11.60;99.90
6164;DHT22;3114;48.362;10.994;2023-04-03T14:42:12;11.30;99.90
6164;DHT22;3114;48.362;10.994;2023-04-03T14:44:41;11.20;99.90
6164;DHT22;3114;48.362;10.994;2023-04-03T14:47:10;11.40;99.90
6164;DHT22;3114;48.362;10.994;2023-04-03T14:49:38;11.50;99.90
6164;DHT22;3114;48.362;10.994;2023-04-03T14:52:05;11.50;99.90
6164;DHT22;3114;48.362;10.994;2023-04-03T14:54:32;11.30;99.90
6164;DHT22;3114;48.362;10.994;2023-04-03T14:56:59;10.90;99.90
6164;DHT22;3114;48.362;10.994;2023-04-03T14:59:28;10.30;99.90
6164;DHT22;3114;48.362;10.994;2023-04-03T15:01:57;10.40;99.90
6164;DHT22;3114;48.362;10.994;2023-04-03T15:04:24;10.40;99.90
6164;DHT22;3114;48.362;10.994;2023-04-03T15:06:51;10.30;99.90
6164;DHT22;3114;48.362;10.994;2023-04-03T15:09:21;10.20;99.90
6164;DHT22;3114;48.362;10.994;2023-04-03T15:11:48;10.70;99.90
6164;DHT22;3114;48.362;10.994;2023-04-03T15:14:16;11.10;99.90
6164;DHT22;3114;48.362;10.994;2023-04-03T15:16:43;10.90;99.90
6164;DHT22;3114;48.362;10.994;2023-04-03T15:19:11;10.80;99.90
6164;DHT22;3114;48.362;10.994;2023-04-03T15:21:39;10.80;99.90
6164;DHT22;3114;48.362;10.994;2023-04-03T15:24:06;10.70;99.90
6164;DHT22;3114;48.362;10.994;2023-04-03T15:26:33;11.00;99.90
6164;DHT22;3114;48.362;10.994;2023-04-03T15:29:00;11.00;99.90
6164;DHT22;3114;48.362;10.994;2023-04-03T15:31:27;11.00;99.90
6164;DHT22;3114;48.362;10.994;2023-04-03T15:33:56;10.90;99.90
6164;DHT22;3114;48.362;10.994;2023-04-03T15:36:24;10.70;99.90
6164;DHT22;3114;48.362;10.994;2023-04-03T15:38:51;10.40;99.90
6164;DHT22;3114;48.362;10.994;2023-04-03T15:41:18;10.20;99.90
6164;DHT22;3114;48.362;10.994;2023-04-03T15:43:45;9.90;99.90
6164;DHT22;3114;48.362;10.994;2023-04-03T15:46:12;9.90;99.90
6164;DHT22;3114;48.362;10.994;2023-04-03T15:48:39;9.80;99.90
6164;DHT22;3114;48.362;10.994;2023-04-03T15:51:06;9.80;99.90
6164;DHT22;3114;48.362;10.994;2023-04-03T15:53:34;9.90;99.90
6164;DHT22;3114;48.362;10.994;2023-04-03T15:56:01;10.10;99.90
6164;DHT22;3114;48.362;10.994;2023-04-03T15:58:30;10.30;99.90
6164;DHT22;3114;48.362;10.994;2023-04-03T16:00:57;10.40;99.90
6164;DHT22;3114;48.362;10.994;2023-04-03T16:03:23;10.50;99.90
6164;DHT22;3114;48.362;10.994;2023-04-03T16:05:51;10.60;99.90
6164;DHT22;3114;48.362;10.994;2023-04-03T16:08:18;10.00;99.90
6164;DHT22;3114;48.362;10.994;2023-04-03T16:10:46;9.90;99.90
6164;DHT22;3114;48.362;10.994;2023-04-03T16:13:13;9.80;99.90
6164;DHT22;3114;48.362;10.994;2023-04-03T16:15:41;9.80;99.90
6164;DHT22;3114;48.362;10.994;2023-04-03T16:18:08;9.60;99.90
6164;DHT22;3114;48.362;10.994;2023-04-03T16:20:36;9.40;99.90
6164;DHT22;3114;48.362;10.994;2023-04-03T16:23:03;9.30;99.90
6164;DHT22;3114;48.362;10.994;2023-04-03T16:25:30;9.20;99.90
6164;DHT22;3114;48.362;10.994;2023-04-03T16:27:58;9.10;99.90
6164;DHT22;3114;48.362;10.994;2023-04-03T16:30:25;9.10;99.90
6164;DHT22;3114;48.362;10.994;2023-04-03T16:32:54;9.10;99.90